sensor_id;sensor_type;location;lat;lon;timestamp;P1;durP1;ratioP1;P2;durP2;ratioP2
21448;SDS011;10885;52.830;13.788;2023-03-26T05:46:36;8.23;;;2.45;;
21448;SDS011;10885;52.830;13.788;2023-03-26T05:51:57;4.78;;;2.53;;
21448;SDS011;10885;52.830;13.788;2023-03-26T05:57:41;4.00;;;2.00;;
21448;SDS011;10885;52.830;13.788;2023-03-26T06:03:20;6.90;;;2.83;;
21448;SDS011;10885;52.830;13.788;2023-03-26T06:09:17;8.27;;;2.00;;
21448;SDS011;10885;52.830;13.788;2023-03-26T06:14:39;4.32;;;2.28;;
21448;SDS011;10885;52.830;13.788;2023-03-26T06:20:28;8.60;;;2.22;;
21448;SDS011;10885;52.830;13.788;2023-03-26T06:25:53;7.18;;;2.50;;
21448;SDS011;10885;52.830;13.788;2023-03-26T06:31:33;4.93;;;1.80;;
21448;SDS011;10885;52.830;13.788;2023-03-26T06:37:08;5.75;;;1.80;;
21448;SDS011;10885;52.830;13.788;2023-03-26T06:48:03;4.10;;;1.80;;
21448;SDS011;10885;52.830;13.788;2023-03-26T06:53:39;5.03;;;1.70;;
21448;SDS011;10885;52.830;13.788;2023-03-26T06:59:24;6.47;;;1.83;;
21448;SDS011;10885;52.830;13.788;2023-03-26T07:05:03;3.95;;;1.50;;
21448;SDS011;10885;52.830;13.788;2023-03-26T07:10:44;7.72;;;1.90;;
21448;SDS011;10885;52.830;13.788;2023-03-26T07:16:44;5.90;;;1.20;;
21448;SDS011;10885;52.830;13.788;2023-03-26T07:22:25;3.53;;;1.30;;
21448;SDS011;10885;52.830;13.788;2023-03-26T07:34:01;6.38;;;1.50;;
21448;SDS011;10885;52.830;13.788;2023-03-26T07:39:58;2.47;;;1.20;;
21448;SDS011;10885;52.830;13.788;2023-03-26T07:45:55;2.90;;;1.20;;
21448;SDS011;10885;52.830;13.788;2023-03-26T07:51:34;2.97;;;1.05;;
21448;SDS011;10885;52.830;13.788;2023-03-26T08:15:51;6.28;;;1.40;;
21448;SDS011;10885;52.830;13.788;2023-03-26T08:21:26;2.78;;;1.33;;
21448;SDS011;10885;52.830;13.788;2023-03-26T08:27:02;3.88;;;1.50;;
21448;SDS011;10885;52.830;13.788;2023-03-26T08:32:26;4.00;;;1.58;;
21448;SDS011;10885;52.830;13.788;2023-03-26T08:37:47;5.25;;;1.30;;
21448;SDS011;10885;52.830;13.788;2023-03-26T08:48:47;4.82;;;1.42;;
21448;SDS011;10885;52.830;13.788;2023-03-26T09:16:52;2.40;;;1.33;;
21448;SDS011;10885;52.830;13.788;2023-03-26T09:28:06;5.28;;;1.13;;
21448;SDS011;10885;52.830;13.788;2023-03-26T09:39:25;4.85;;;1.20;;
21448;SDS011;10885;52.830;13.788;2023-03-26T10:26:03;5.65;;;2.25;;
21448;SDS011;10885;52.830;13.788;2023-03-26T10:37:42;4.35;;;1.27;;
21448;SDS011;10885;52.830;13.788;2023-03-26T10:43:12;10.80;;;4.63;;
21448;SDS011;10885;52.830;13.788;2023-03-26T10:48:58;3.55;;;1.00;;
21448;SDS011;10885;52.830;13.788;2023-03-26T11:00:06;9.93;;;1.60;;
21448;SDS011;10885;52.830;13.788;2023-03-26T11:34:00;6.05;;;1.38;;
21448;SDS011;10885;52.830;13.788;2023-03-26T11:39:34;9.40;;;1.75;;
21448;SDS011;10885;52.830;13.788;2023-03-26T11:45:03;5.00;;;1.70;;
21448;SDS011;10885;52.830;13.788;2023-03-26T11:50:29;4.72;;;1.38;;
21448;SDS011;10885;52.830;13.788;2023-03-26T11:55:56;5.68;;;1.65;;
21448;SDS011;10885;52.830;13.788;2023-03-26T12:01:25;3.47;;;0.98;;
21448;SDS011;10885;52.830;13.788;2023-03-26T12:06:51;6.20;;;1.38;;
21448;SDS011;10885;52.830;13.788;2023-03-26T12:12:46;5.05;;;1.35;;
21448;SDS011;10885;52.830;13.788;2023-03-26T12:18:22;2.58;;;1.27;;
21448;SDS011;10885;52.830;13.788;2023-03-26T12:29:28;5.15;;;1.52;;
21448;SDS011;10885;52.830;13.788;2023-03-26T12:34:54;5.40;;;1.58;;
21448;SDS011;10885;52.830;13.788;2023-03-26T12:45:44;5.35;;;1.45;;
21448;SDS011;10885;52.830;13.788;2023-03-26T12:51:14;4.93;;;1.80;;
21448;SDS011;10885;52.830;13.788;2023-03-26T12:56:59;5.22;;;1.40;;
21448;SDS011;10885;52.830;13.788;2023-03-26T13:20:18;5.50;;;1.27;;
21448;SDS011;10885;52.830;13.788;2023-03-26T13:37:35;4.55;;;1.40;;
21448;SDS011;10885;52.830;13.788;2023-03-26T13:49:19;5.28;;;1.50;;
21448;SDS011;10885;52.830;13.788;2023-03-26T13:54:43;2.78;;;1.27;;
21448;SDS011;10885;52.830;13.788;2023-03-26T14:00:16;2.17;;;1.05;;
21448;SDS011;10885;52.830;13.788;2023-03-26T14:05:43;3.67;;;1.20;;
21448;SDS011;10885;52.830;13.788;2023-03-26T14:16:47;5.13;;;1.05;;
21448;SDS011;10885;52.830;13.788;2023-03-26T14:22:18;2.40;;;1.20;;
21448;SDS011;10885;52.830;13.788;2023-03-26T14:27:57;2.33;;;1.25;;
21448;SDS011;10885;52.830;13.788;2023-03-26T14:50:46;2.38;;;1.30;;
21448;SDS011;10885;52.830;13.788;2023-03-26T14:56:29;3.83;;;1.45;;
21448;SDS011;10885;52.830;13.788;2023-03-26T15:13:18;4.70;;;1.55;;
21448;SDS011;10885;52.830;13.788;2023-03-26T16:21:42;4.22;;;1.70;;
21448;SDS011;10885;52.830;13.788;2023-03-26T16:32:35;5.50;;;1.45;;
21448;SDS011;10885;52.830;13.788;2023-03-26T16:38:04;3.88;;;1.30;;
21448;SDS011;10885;52.830;13.788;2023-03-26T16:49:25;3.50;;;1.48;;
21448;SDS011;10885;52.830;13.788;2023-03-26T16:55:03;5.45;;;1.52;;
21448;SDS011;10885;52.830;13.788;2023-03-26T17:00:39;9.38;;;1.90;;
21448;SDS011;10885;52.830;13.788;2023-03-26T17:06:12;3.35;;;1.77;;
21448;SDS011;10885;52.830;13.788;2023-03-26T17:41:03;4.88;;;1.58;;
21448;SDS011;10885;52.830;13.788;2023-03-26T17:52:02;7.88;;;3.17;;
21448;SDS011;10885;52.830;13.788;2023-03-26T18:03:00;8.82;;;3.08;;
21448;SDS011;10885;52.830;13.788;2023-03-26T18:08:40;7.70;;;2.45;;
21448;SDS011;10885;52.830;13.788;2023-03-26T18:20:18;5.43;;;2.58;;
21448;SDS011;10885;52.830;13.788;2023-03-26T18:25:46;8.00;;;2.83;;
21448;SDS011;10885;52.830;13.788;2023-03-26T18:31:19;16.42;;;4.22;;
21448;SDS011;10885;52.830;13.788;2023-03-26T18:42:43;9.13;;;3.05;;
21448;SDS011;10885;52.830;13.788;2023-03-26T18:48:14;8.82;;;2.90;;
21448;SDS011;10885;52.830;13.788;2023-03-26T18:53:45;6.55;;;2.58;;
21448;SDS011;10885;52.830;13.788;2023-03-26T18:59:23;7.22;;;2.78;;
21448;SDS011;10885;52.830;13.788;2023-03-26T19:04:51;12.95;;;3.45;;
21448;SDS011;10885;52.830;13.788;2023-03-26T19:10:14;10.63;;;2.63;;
21448;SDS011;10885;52.830;13.788;2023-03-26T19:15:42;17.35;;;4.03;;
21448;SDS011;10885;52.830;13.788;2023-03-26T19:21:06;10.48;;;3.80;;
21448;SDS011;10885;52.830;13.788;2023-03-26T19:26:29;13.13;;;3.20;;
21448;SDS011;10885;52.830;13.788;2023-03-26T19:31:51;10.15;;;3.38;;
21448;SDS011;10885;52.830;13.788;2023-03-26T19:43:10;13.40;;;3.30;;
21448;SDS011;10885;52.830;13.788;2023-03-26T19:48:33;16.45;;;3.95;;
21448;SDS011;10885;52.830;13.788;2023-03-26T19:53:57;14.75;;;3.30;;
21448;SDS011;10885;52.830;13.788;2023-03-26T19:59:20;19.65;;;3.17;;
21448;SDS011;10885;52.830;13.788;2023-03-26T20:04:40;15.02;;;4.20;;
21448;SDS011;10885;52.830;13.788;2023-03-26T20:10:02;11.93;;;3.88;;
21448;SDS011;10885;52.830;13.788;2023-03-26T20:15:25;15.57;;;4.45;;
21448;SDS011;10885;52.830;13.788;2023-03-26T20:20:49;17.98;;;3.65;;
21448;SDS011;10885;52.830;13.788;2023-03-26T20:26:14;16.70;;;3.60;;
21448;SDS011;10885;52.830;13.788;2023-03-26T20:31:35;14.55;;;3.00;;
21448;SDS011;10885;52.830;13.788;2023-03-26T20:36:58;16.05;;;3.60;;
21448;SDS011;10885;52.830;13.788;2023-03-26T20:42:18;12.93;;;3.03;;
21448;SDS011;10885;52.830;13.788;2023-03-26T20:47:39;19.92;;;3.38;;
21448;SDS011;10885;52.830;13.788;2023-03-26T20:58:21;17.17;;;4.10;;
21448;SDS011;10885;52.830;13.788;2023-03-26T21:03:42;21.33;;;4.28;;
21448;SDS011;10885;52.830;13.788;2023-03-26T21:09:04;17.83;;;3.85;;
21448;SDS011;10885;52.830;13.788;2023-03-26T21:14:35;21.05;;;4.70;;
21448;SDS011;10885;52.830;13.788;2023-03-26T21:20:01;16.58;;;4.03;;
21448;SDS011;10885;52.830;13.788;2023-03-26T21:31:05;19.80;;;4.20;;
21448;SDS011;10885;52.830;13.788;2023-03-26T21:36:32;18.15;;;4.88;;
21448;SDS011;10885;52.830;13.788;2023-03-26T21:41:54;14.32;;;3.85;;
21448;SDS011;10885;52.830;13.788;2023-03-26T21:47:15;11.65;;;3.13;;
21448;SDS011;10885;52.830;13.788;2023-03-26T21:52:37;14.45;;;3.40;;
21448;SDS011;10885;52.830;13.788;2023-03-26T21:58:11;16.92;;;3.70;;
21448;SDS011;10885;52.830;13.788;2023-03-26T22:09:55;17.83;;;3.95;;
21448;SDS011;10885;52.830;13.788;2023-03-26T22:15:16;15.07;;;4.15;;
21448;SDS011;10885;52.830;13.788;2023-03-26T22:20:38;11.38;;;3.70;;
21448;SDS011;10885;52.830;13.788;2023-03-26T22:26:03;15.82;;;3.97;;
21448;SDS011;10885;52.830;13.788;2023-03-26T22:31:25;18.33;;;3.67;;
21448;SDS011;10885;52.830;13.788;2023-03-26T22:36:46;8.48;;;2.80;;
21448;SDS011;10885;52.830;13.788;2023-03-26T22:42:07;11.65;;;2.95;;
21448;SDS011;10885;52.830;13.788;2023-03-26T22:52:50;5.70;;;2.00;;
21448;SDS011;10885;52.830;13.788;2023-03-26T22:58:11;10.73;;;2.63;;
21448;SDS011;10885;52.830;13.788;2023-03-26T23:03:31;5.22;;;1.90;;
21448;SDS011;10885;52.830;13.788;2023-03-26T23:08:52;12.10;;;2.42;;
21448;SDS011;10885;52.830;13.788;2023-03-26T23:14:16;9.45;;;2.03;;
21448;SDS011;10885;52.830;13.788;2023-03-26T23:19:38;9.65;;;3.13;;
21448;SDS011;10885;52.830;13.788;2023-03-26T23:24:59;7.15;;;2.13;;
21448;SDS011;10885;52.830;13.788;2023-03-26T23:30:20;5.30;;;1.70;;
21448;SDS011;10885;52.830;13.788;2023-03-26T23:35:41;5.25;;;2.40;;
21448;SDS011;10885;52.830;13.788;2023-03-26T23:41:04;3.92;;;1.90;;
21448;SDS011;10885;52.830;13.788;2023-03-26T23:46:26;8.65;;;2.58;;
21448;SDS011;10885;52.830;13.788;2023-03-26T23:51:54;10.23;;;2.60;;
21448;SDS011;10885;52.830;13.788;2023-03-26T23:57:14;5.40;;;2.20;;
